Date,TemperatureHighF,TemperatureAvgF,TemperatureLowF,DewpointHighF,DewpointAvgF,DewpointLowF,HumidityHigh,HumidityAvg,HumidityLow,PressureMaxIn,PressureMinIn,WindSpeedMaxMPH,WindSpeedAvgMPH,GustSpeedMaxMPH,PrecipitationSumIn
2013-1-1,28.0,26.3,25.0,-99.9,-99.9,-99.9,0,0,100,0.00,40.00,7,4,7,0.00
2013-1-2,25.0,24.1,19.0,-99.9,-99.9,-99.9,0,0,100,0.00,40.00,7,6,9,0.00
2013-1-3,22.0,19.5,16.0,-99.9,-99.9,-99.9,0,0,100,0.00,40.00,9,6,9,0.00
2013-1-4,23.0,20.4,17.0,-99.9,-99.9,-99.9,0,0,100,0.00,40.00,9,5,9,0.00
2013-1-11,24.0,21.4,15.0,-99.9,-99.9,-99.9,0,0,100,0.00,40.00,13,6,18,0.00
2013-1-12,19.0,17.2,15.0,-99.9,-99.9,-99.9,0,0,100,0.00,40.00,11,6,18,0.00
2013-1-13,18.0,14.8,11.0,-99.9,-99.9,-99.9,0,0,100,0.00,40.00,9,5,11,0.00
2013-1-14,24.0,21.2,17.0,-99.9,-99.9,-99.9,0,0,100,0.00,40.00,16,9,20,0.00
2013-1-15,27.0,21.9,21.0,-99.9,-99.9,-99.9,0,0,100,0.00,40.00,7,5,9,0.00
2013-1-16,22.0,19.9,16.0,-99.9,-99.9,-99.9,0,0,100,0.00,40.00,7,4,7,0.00
2013-1-18,30.0,30.0,30.0,-99.9,-99.9,-99.9,0,0,100,0.00,40.00,4,4,7,0.00
2013-1-21,28.0,28.0,28.0,-99.9,-99.9,-99.9,0,0,100,0.00,40.00,2,2,2,0.00
2013-1-25,31.0,31.0,31.0,-99.9,-99.9,-99.9,0,0,100,0.00,40.00,4,4,7,0.00
2013-1-29,32.0,30.5,30.0,-99.9,-99.9,-99.9,0,0,100,0.00,40.00,16,11,18,0.00
2013-1-30,39.0,35.5,32.0,-99.9,-99.9,-99.9,0,0,100,0.00,40.00,16,9,18,0.00
2013-1-31,39.0,39.0,39.0,-99.9,-99.9,-99.9,0,0,100,0.00,40.00,16,16,18,0.00
2013-2-2,37.0,37.0,37.0,-99.9,-99.9,-99.9,0,0,100,0.00,40.00,2,2,4,0.00
2013-2-4,40.0,39.5,39.0,-99.9,-99.9,-99.9,0,0,100,0.00,40.00,16,12,20,0.00
2013-2-7,38.0,35.8,35.0,-99.9,-99.9,-99.9,0,0,100,0.00,40.00,13,5,16,0.00
2013-2-9,29.0,28.0,27.0,-99.9,-99.9,-99.9,0,0,100,0.00,40.00,7,4,9,0.00
2013-2-10,30.0,27.7,26.0,-99.9,-99.9,-99.9,0,0,100,0.00,40.00,4,4,7,0.00
2013-2-11,30.0,29.2,29.0,-99.9,-99.9,-99.9,0,0,100,0.00,40.00,2,2,4,0.00
2013-2-12,35.0,35.0,35.0,-99.9,-99.9,-99.9,0,0,100,0.00,40.00,7,7,9,0.00
2013-2-18,34.0,33.5,33.0,-99.9,-99.9,-99.9,0,0,100,0.00,40.00,7,7,9,0.00
2013-2-19,37.0,37.0,37.0,-99.9,-99.9,-99.9,0,0,100,0.00,40.00,2,2,4,0.00
2013-2-21,33.0,33.0,33.0,-99.9,-99.9,-99.9,0,0,100,0.00,40.00,16,16,18,0.00
2013-3-3,31.0,31.0,31.0,-99.9,-99.9,-99.9,0,0,100,0.00,40.00,11,11,16,0.00
2013-3-4,33.0,32.5,32.0,-99.9,-99.9,-99.9,0,0,100,0.00,40.00,2,2,4,0.00
2013-3-5,21.0,21.0,21.0,-99.9,-99.9,-99.9,0,0,100,0.00,40.00,11,11,13,0.00
2013-3-27,36.0,36.0,36.0,-99.9,-99.9,-99.9,0,0,100,0.00,40.00,2,2,4,0.00
2013-3-28,42.0,42.0,42.0,-99.9,-99.9,-99.9,0,0,100,0.00,40.00,11,11,13,0.00
2013-4-14,33.0,33.0,33.0,-99.9,-99.9,-99.9,0,0,100,0.00,40.00,16,16,18,0.00
2013-4-15,35.0,35.0,35.0,-99.9,-99.9,-99.9,0,0,100,0.00,40.00,9,9,20,0.00
2013-4-17,40.0,40.0,40.0,-99.9,-99.9,-99.9,0,0,100,0.00,40.00,11,11,13,0.00
2013-4-18,42.0,42.0,42.0,-99.9,-99.9,-99.9,0,0,100,0.00,40.00,16,16,20,0.00
2013-5-6,60.0,60.0,60.0,-99.9,-99.9,-99.9,0,0,100,0.00,40.00,7,7,9,0.00
2013-5-31,55.0,55.0,55.0,-99.9,-99.9,-99.9,0,0,100,0.00,40.00,4,4,4,0.00
2013-7-9,75.0,75.0,75.0,-99.9,-99.9,-99.9,0,0,100,0.00,40.00,2,2,2,0.00
2013-7-10,57.0,57.0,57.0,-99.9,-99.9,-99.9,0,0,100,0.00,40.00,4,4,7,0.00